sensor_id;sensor_type;location;lat;lon;timestamp;P1;durP1;ratioP1;P2;durP2;ratioP2
48685;SDS011;34485;51.536;3.816;2023-07-29T00:01:11;3.27;;;2.97;;
48685;SDS011;34485;51.536;3.816;2023-07-29T00:03:37;4.28;;;2.75;;
48685;SDS011;34485;51.536;3.816;2023-07-29T00:06:03;2.60;;;2.27;;
48685;SDS011;34485;51.536;3.816;2023-07-29T00:08:28;5.45;;;2.10;;
48685;SDS011;34485;51.536;3.816;2023-07-29T00:10:54;3.23;;;2.40;;
48685;SDS011;34485;51.536;3.816;2023-07-29T00:13:19;2.72;;;2.00;;
48685;SDS011;34485;51.536;3.816;2023-07-29T00:15:45;2.73;;;2.37;;
48685;SDS011;34485;51.536;3.816;2023-07-29T00:18:11;4.38;;;2.33;;
48685;SDS011;34485;51.536;3.816;2023-07-29T00:20:37;4.80;;;2.10;;
48685;SDS011;34485;51.536;3.816;2023-07-29T00:23:02;2.30;;;2.10;;
48685;SDS011;34485;51.536;3.816;2023-07-29T00:25:28;2.87;;;2.73;;
48685;SDS011;34485;51.536;3.816;2023-07-29T00:27:56;4.70;;;2.87;;
48685;SDS011;34485;51.536;3.816;2023-07-29T00:30:23;3.40;;;2.80;;
48685;SDS011;34485;51.536;3.816;2023-07-29T00:32:49;3.08;;;2.67;;
48685;SDS011;34485;51.536;3.816;2023-07-29T00:35:14;3.13;;;1.73;;
48685;SDS011;34485;51.536;3.816;2023-07-29T00:37:40;3.40;;;2.60;;
48685;SDS011;34485;51.536;3.816;2023-07-29T00:40:08;2.40;;;2.28;;
48685;SDS011;34485;51.536;3.816;2023-07-29T00:42:39;4.40;;;2.92;;
48685;SDS011;34485;51.536;3.816;2023-07-29T00:45:05;2.20;;;1.97;;
48685;SDS011;34485;51.536;3.816;2023-07-29T00:47:32;2.88;;;2.63;;
48685;SDS011;34485;51.536;3.816;2023-07-29T00:49:58;1.73;;;1.63;;
48685;SDS011;34485;51.536;3.816;2023-07-29T00:52:24;4.10;;;2.60;;
48685;SDS011;34485;51.536;3.816;2023-07-29T00:54:49;3.75;;;3.40;;
48685;SDS011;34485;51.536;3.816;2023-07-29T00:57:15;6.67;;;2.70;;
48685;SDS011;34485;51.536;3.816;2023-07-29T00:59:42;2.83;;;2.55;;
48685;SDS011;34485;51.536;3.816;2023-07-29T01:02:09;3.60;;;2.80;;
48685;SDS011;34485;51.536;3.816;2023-07-29T01:04:34;2.28;;;2.08;;
48685;SDS011;34485;51.536;3.816;2023-07-29T01:09:48;6.05;;;2.20;;
48685;SDS011;34485;51.536;3.816;2023-07-29T01:15:22;2.73;;;2.20;;
48685;SDS011;34485;51.536;3.816;2023-07-29T01:18:13;3.67;;;2.60;;
48685;SDS011;34485;51.536;3.816;2023-07-29T01:20:45;2.97;;;2.42;;
48685;SDS011;34485;51.536;3.816;2023-07-29T01:23:13;3.53;;;2.40;;
48685;SDS011;34485;51.536;3.816;2023-07-29T01:25:40;2.90;;;2.45;;
48685;SDS011;34485;51.536;3.816;2023-07-29T01:28:06;2.83;;;2.30;;
48685;SDS011;34485;51.536;3.816;2023-07-29T01:30:33;2.13;;;1.95;;
48685;SDS011;34485;51.536;3.816;2023-07-29T01:33:08;4.63;;;2.23;;
48685;SDS011;34485;51.536;3.816;2023-07-29T01:35:50;4.82;;;2.45;;
48685;SDS011;34485;51.536;3.816;2023-07-29T01:38:21;5.43;;;3.33;;
48685;SDS011;34485;51.536;3.816;2023-07-29T01:40:56;2.28;;;2.03;;
48685;SDS011;34485;51.536;3.816;2023-07-29T01:43:23;4.05;;;2.80;;
48685;SDS011;34485;51.536;3.816;2023-07-29T01:45:50;2.77;;;2.43;;
48685;SDS011;34485;51.536;3.816;2023-07-29T01:48:16;4.82;;;2.47;;
48685;SDS011;34485;51.536;3.816;2023-07-29T01:50:42;6.95;;;2.47;;
48685;SDS011;34485;51.536;3.816;2023-07-29T01:53:08;4.57;;;2.50;;
48685;SDS011;34485;51.536;3.816;2023-07-29T01:55:33;4.40;;;2.72;;
48685;SDS011;34485;51.536;3.816;2023-07-29T01:57:59;3.47;;;3.17;;
48685;SDS011;34485;51.536;3.816;2023-07-29T02:00:24;3.90;;;2.40;;
48685;SDS011;34485;51.536;3.816;2023-07-29T02:02:50;2.55;;;2.30;;
48685;SDS011;34485;51.536;3.816;2023-07-29T02:05:15;3.73;;;2.43;;
48685;SDS011;34485;51.536;3.816;2023-07-29T02:07:41;4.47;;;2.43;;
48685;SDS011;34485;51.536;3.816;2023-07-29T02:10:07;3.80;;;2.88;;
48685;SDS011;34485;51.536;3.816;2023-07-29T02:12:33;5.50;;;2.88;;
48685;SDS011;34485;51.536;3.816;2023-07-29T02:14:59;3.87;;;2.20;;
48685;SDS011;34485;51.536;3.816;2023-07-29T02:17:24;6.78;;;2.70;;
48685;SDS011;34485;51.536;3.816;2023-07-29T02:19:51;4.43;;;2.60;;
48685;SDS011;34485;51.536;3.816;2023-07-29T02:22:17;3.80;;;3.00;;
48685;SDS011;34485;51.536;3.816;2023-07-29T02:24:43;3.55;;;3.28;;
48685;SDS011;34485;51.536;3.816;2023-07-29T02:27:09;5.25;;;3.00;;
48685;SDS011;34485;51.536;3.816;2023-07-29T02:29:35;4.73;;;2.90;;
48685;SDS011;34485;51.536;3.816;2023-07-29T02:32:01;5.90;;;2.80;;
48685;SDS011;34485;51.536;3.816;2023-07-29T02:34:28;4.60;;;2.97;;
48685;SDS011;34485;51.536;3.816;2023-07-29T02:36:54;5.53;;;3.30;;
48685;SDS011;34485;51.536;3.816;2023-07-29T02:39:19;4.43;;;2.73;;
48685;SDS011;34485;51.536;3.816;2023-07-29T02:41:45;6.90;;;3.83;;
48685;SDS011;34485;51.536;3.816;2023-07-29T02:44:11;9.23;;;3.33;;
48685;SDS011;34485;51.536;3.816;2023-07-29T02:46:36;4.95;;;3.92;;
48685;SDS011;34485;51.536;3.816;2023-07-29T02:49:02;4.33;;;3.00;;
48685;SDS011;34485;51.536;3.816;2023-07-29T02:51:29;4.22;;;3.63;;
48685;SDS011;34485;51.536;3.816;2023-07-29T02:53:55;5.70;;;4.05;;
48685;SDS011;34485;51.536;3.816;2023-07-29T02:56:20;9.07;;;3.37;;
48685;SDS011;34485;51.536;3.816;2023-07-29T02:58:46;6.78;;;3.72;;
48685;SDS011;34485;51.536;3.816;2023-07-29T03:01:12;5.57;;;3.30;;
48685;SDS011;34485;51.536;3.816;2023-07-29T03:03:37;8.37;;;3.20;;
48685;SDS011;34485;51.536;3.816;2023-07-29T03:06:05;7.35;;;4.28;;
48685;SDS011;34485;51.536;3.816;2023-07-29T03:08:32;5.47;;;3.92;;
48685;SDS011;34485;51.536;3.816;2023-07-29T03:10:58;5.97;;;3.08;;
48685;SDS011;34485;51.536;3.816;2023-07-29T03:13:24;6.60;;;3.47;;
48685;SDS011;34485;51.536;3.816;2023-07-29T03:15:50;7.78;;;3.88;;
48685;SDS011;34485;51.536;3.816;2023-07-29T03:18:16;5.60;;;3.45;;
48685;SDS011;34485;51.536;3.816;2023-07-29T03:20:42;4.17;;;3.57;;
48685;SDS011;34485;51.536;3.816;2023-07-29T03:23:07;3.88;;;3.22;;
48685;SDS011;34485;51.536;3.816;2023-07-29T03:25:33;7.53;;;3.60;;
48685;SDS011;34485;51.536;3.816;2023-07-29T03:27:58;4.45;;;3.78;;
48685;SDS011;34485;51.536;3.816;2023-07-29T03:30:24;5.10;;;3.53;;
48685;SDS011;34485;51.536;3.816;2023-07-29T03:32:50;6.50;;;3.43;;
48685;SDS011;34485;51.536;3.816;2023-07-29T03:35:15;6.20;;;4.03;;
48685;SDS011;34485;51.536;3.816;2023-07-29T03:37:41;3.55;;;3.20;;
48685;SDS011;34485;51.536;3.816;2023-07-29T03:40:07;8.00;;;3.73;;
48685;SDS011;34485;51.536;3.816;2023-07-29T03:42:36;14.32;;;4.25;;
48685;SDS011;34485;51.536;3.816;2023-07-29T03:45:02;5.93;;;3.37;;
48685;SDS011;34485;51.536;3.816;2023-07-29T03:47:28;4.03;;;3.47;;
48685;SDS011;34485;51.536;3.816;2023-07-29T03:49:53;7.70;;;3.72;;
48685;SDS011;34485;51.536;3.816;2023-07-29T03:52:19;4.53;;;3.40;;
48685;SDS011;34485;51.536;3.816;2023-07-29T03:54:45;5.28;;;3.35;;
48685;SDS011;34485;51.536;3.816;2023-07-29T03:57:10;4.50;;;3.73;;
48685;SDS011;34485;51.536;3.816;2023-07-29T03:59:36;5.57;;;3.93;;
48685;SDS011;34485;51.536;3.816;2023-07-29T04:02:02;4.50;;;3.83;;
48685;SDS011;34485;51.536;3.816;2023-07-29T04:04:27;7.20;;;3.43;;
48685;SDS011;34485;51.536;3.816;2023-07-29T04:06:53;5.13;;;3.20;;
48685;SDS011;34485;51.536;3.816;2023-07-29T04:09:18;4.30;;;2.77;;
48685;SDS011;34485;51.536;3.816;2023-07-29T04:11:44;3.65;;;3.22;;
48685;SDS011;34485;51.536;3.816;2023-07-29T04:14:10;4.67;;;2.93;;
48685;SDS011;34485;51.536;3.816;2023-07-29T04:16:35;3.47;;;2.90;;
48685;SDS011;34485;51.536;3.816;2023-07-29T04:19:01;3.28;;;2.67;;
48685;SDS011;34485;51.536;3.816;2023-07-29T04:21:26;7.17;;;3.70;;
48685;SDS011;34485;51.536;3.816;2023-07-29T04:23:52;3.73;;;3.20;;
48685;SDS011;34485;51.536;3.816;2023-07-29T04:26:17;5.35;;;2.67;;
48685;SDS011;34485;51.536;3.816;2023-07-29T04:28:43;3.37;;;2.80;;
48685;SDS011;34485;51.536;3.816;2023-07-29T04:31:09;4.35;;;2.92;;
48685;SDS011;34485;51.536;3.816;2023-07-29T04:33:34;5.30;;;3.17;;
48685;SDS011;34485;51.536;3.816;2023-07-29T04:36:00;13.87;;;3.47;;
48685;SDS011;34485;51.536;3.816;2023-07-29T04:38:30;4.68;;;3.35;;
48685;SDS011;34485;51.536;3.816;2023-07-29T04:40:57;5.65;;;3.25;;
48685;SDS011;34485;51.536;3.816;2023-07-29T04:43:26;4.17;;;3.30;;
48685;SDS011;34485;51.536;3.816;2023-07-29T04:45:56;5.43;;;3.22;;
48685;SDS011;34485;51.536;3.816;2023-07-29T04:48:22;7.63;;;3.58;;
48685;SDS011;34485;51.536;3.816;2023-07-29T04:50:47;3.23;;;2.90;;
48685;SDS011;34485;51.536;3.816;2023-07-29T04:53:13;5.38;;;3.65;;
48685;SDS011;34485;51.536;3.816;2023-07-29T04:55:41;4.10;;;3.07;;
48685;SDS011;34485;51.536;3.816;2023-07-29T04:58:07;6.10;;;3.20;;
48685;SDS011;34485;51.536;3.816;2023-07-29T05:00:33;4.10;;;3.80;;
48685;SDS011;34485;51.536;3.816;2023-07-29T05:02:59;4.72;;;3.40;;
48685;SDS011;34485;51.536;3.816;2023-07-29T05:05:26;8.90;;;3.22;;
48685;SDS011;34485;51.536;3.816;2023-07-29T05:07:52;10.90;;;4.17;;
48685;SDS011;34485;51.536;3.816;2023-07-29T05:10:17;4.63;;;3.17;;
48685;SDS011;34485;51.536;3.816;2023-07-29T05:12:43;4.55;;;3.22;;
48685;SDS011;34485;51.536;3.816;2023-07-29T05:15:09;5.50;;;2.80;;
48685;SDS011;34485;51.536;3.816;2023-07-29T05:17:35;7.45;;;2.80;;
48685;SDS011;34485;51.536;3.816;2023-07-29T05:20:00;6.47;;;3.40;;
48685;SDS011;34485;51.536;3.816;2023-07-29T05:22:26;6.40;;;3.13;;
48685;SDS011;34485;51.536;3.816;2023-07-29T05:24:51;7.17;;;3.93;;
48685;SDS011;34485;51.536;3.816;2023-07-29T05:27:17;8.97;;;3.43;;
48685;SDS011;34485;51.536;3.816;2023-07-29T05:29:42;8.25;;;3.13;;
48685;SDS011;34485;51.536;3.816;2023-07-29T05:32:08;8.60;;;3.10;;
48685;SDS011;34485;51.536;3.816;2023-07-29T05:34:33;4.93;;;3.07;;
48685;SDS011;34485;51.536;3.816;2023-07-29T05:36:59;7.32;;;3.72;;
48685;SDS011;34485;51.536;3.816;2023-07-29T05:39:25;7.03;;;3.10;;
48685;SDS011;34485;51.536;3.816;2023-07-29T05:41:50;6.07;;;3.23;;
48685;SDS011;34485;51.536;3.816;2023-07-29T05:44:16;4.53;;;2.93;;
48685;SDS011;34485;51.536;3.816;2023-07-29T05:46:41;3.47;;;2.63;;
48685;SDS011;34485;51.536;3.816;2023-07-29T05:49:07;7.18;;;3.60;;
48685;SDS011;34485;51.536;3.816;2023-07-29T05:51:32;4.37;;;3.43;;
48685;SDS011;34485;51.536;3.816;2023-07-29T05:53:58;4.77;;;3.50;;
48685;SDS011;34485;51.536;3.816;2023-07-29T05:56:24;3.55;;;3.17;;
48685;SDS011;34485;51.536;3.816;2023-07-29T05:58:49;7.87;;;3.60;;
48685;SDS011;34485;51.536;3.816;2023-07-29T06:01:15;3.67;;;3.38;;
48685;SDS011;34485;51.536;3.816;2023-07-29T06:03:40;7.83;;;3.13;;
48685;SDS011;34485;51.536;3.816;2023-07-29T06:06:06;3.20;;;2.92;;
48685;SDS011;34485;51.536;3.816;2023-07-29T06:08:32;4.40;;;3.43;;
48685;SDS011;34485;51.536;3.816;2023-07-29T06:10:59;4.53;;;2.75;;
48685;SDS011;34485;51.536;3.816;2023-07-29T06:13:25;3.80;;;3.50;;
48685;SDS011;34485;51.536;3.816;2023-07-29T06:15:51;6.00;;;3.07;;
48685;SDS011;34485;51.536;3.816;2023-07-29T06:18:16;6.47;;;3.53;;
48685;SDS011;34485;51.536;3.816;2023-07-29T06:20:42;3.60;;;2.57;;
48685;SDS011;34485;51.536;3.816;2023-07-29T06:23:07;3.90;;;3.17;;
48685;SDS011;34485;51.536;3.816;2023-07-29T06:25:34;3.50;;;3.08;;
48685;SDS011;34485;51.536;3.816;2023-07-29T06:27:59;3.93;;;3.13;;
48685;SDS011;34485;51.536;3.816;2023-07-29T06:30:25;5.70;;;4.10;;
48685;SDS011;34485;51.536;3.816;2023-07-29T06:32:50;4.45;;;3.05;;
48685;SDS011;34485;51.536;3.816;2023-07-29T06:35:16;4.70;;;3.83;;
48685;SDS011;34485;51.536;3.816;2023-07-29T06:37:42;6.38;;;3.72;;
48685;SDS011;34485;51.536;3.816;2023-07-29T06:40:07;6.43;;;3.80;;
48685;SDS011;34485;51.536;3.816;2023-07-29T06:42:33;7.00;;;3.55;;
48685;SDS011;34485;51.536;3.816;2023-07-29T06:44:59;4.20;;;3.73;;
48685;SDS011;34485;51.536;3.816;2023-07-29T06:47:24;3.92;;;3.53;;
48685;SDS011;34485;51.536;3.816;2023-07-29T06:49:50;4.60;;;3.13;;
48685;SDS011;34485;51.536;3.816;2023-07-29T06:52:16;5.30;;;3.13;;
48685;SDS011;34485;51.536;3.816;2023-07-29T06:54:41;3.63;;;3.27;;
48685;SDS011;34485;51.536;3.816;2023-07-29T06:57:07;4.83;;;3.83;;
48685;SDS011;34485;51.536;3.816;2023-07-29T06:59:33;6.60;;;3.95;;
48685;SDS011;34485;51.536;3.816;2023-07-29T07:01:58;9.13;;;3.73;;
48685;SDS011;34485;51.536;3.816;2023-07-29T07:04:25;5.27;;;3.37;;
48685;SDS011;34485;51.536;3.816;2023-07-29T07:06:50;4.15;;;3.00;;
48685;SDS011;34485;51.536;3.816;2023-07-29T07:09:16;2.73;;;2.53;;
48685;SDS011;34485;51.536;3.816;2023-07-29T07:11:41;3.13;;;2.33;;
48685;SDS011;34485;51.536;3.816;2023-07-29T07:14:07;4.57;;;3.33;;
48685;SDS011;34485;51.536;3.816;2023-07-29T07:16:32;4.70;;;2.87;;
48685;SDS011;34485;51.536;3.816;2023-07-29T07:19:00;4.75;;;2.67;;
48685;SDS011;34485;51.536;3.816;2023-07-29T07:21:26;3.17;;;2.70;;
48685;SDS011;34485;51.536;3.816;2023-07-29T07:23:51;4.53;;;2.75;;
48685;SDS011;34485;51.536;3.816;2023-07-29T07:26:17;3.07;;;2.27;;
48685;SDS011;34485;51.536;3.816;2023-07-29T07:28:42;7.10;;;2.63;;
48685;SDS011;34485;51.536;3.816;2023-07-29T07:31:08;5.30;;;2.60;;
48685;SDS011;34485;51.536;3.816;2023-07-29T07:33:33;6.00;;;2.53;;
48685;SDS011;34485;51.536;3.816;2023-07-29T07:35:59;9.90;;;2.80;;
48685;SDS011;34485;51.536;3.816;2023-07-29T07:38:24;2.73;;;2.53;;
48685;SDS011;34485;51.536;3.816;2023-07-29T07:40:56;4.57;;;2.33;;
48685;SDS011;34485;51.536;3.816;2023-07-29T07:43:22;2.58;;;2.38;;
48685;SDS011;34485;51.536;3.816;2023-07-29T07:45:48;5.45;;;2.63;;
48685;SDS011;34485;51.536;3.816;2023-07-29T07:48:14;3.63;;;2.57;;
48685;SDS011;34485;51.536;3.816;2023-07-29T07:50:41;3.08;;;2.33;;
48685;SDS011;34485;51.536;3.816;2023-07-29T07:53:07;4.03;;;2.03;;
48685;SDS011;34485;51.536;3.816;2023-07-29T07:55:33;3.50;;;2.10;;
48685;SDS011;34485;51.536;3.816;2023-07-29T07:57:58;2.95;;;2.70;;
48685;SDS011;34485;51.536;3.816;2023-07-29T08:00:24;2.03;;;1.80;;
48685;SDS011;34485;51.536;3.816;2023-07-29T08:02:49;2.07;;;1.97;;
48685;SDS011;34485;51.536;3.816;2023-07-29T08:05:15;3.40;;;1.77;;
48685;SDS011;34485;51.536;3.816;2023-07-29T08:07:41;5.80;;;1.90;;
48685;SDS011;34485;51.536;3.816;2023-07-29T08:10:06;2.10;;;1.70;;
48685;SDS011;34485;51.536;3.816;2023-07-29T08:12:32;1.43;;;1.33;;
48685;SDS011;34485;51.536;3.816;2023-07-29T08:14:58;3.20;;;1.70;;
48685;SDS011;34485;51.536;3.816;2023-07-29T08:17:23;2.17;;;1.43;;
48685;SDS011;34485;51.536;3.816;2023-07-29T08:19:49;1.70;;;1.60;;
48685;SDS011;34485;51.536;3.816;2023-07-29T08:22:14;2.67;;;1.40;;
48685;SDS011;34485;51.536;3.816;2023-07-29T08:24:42;1.33;;;1.23;;
48685;SDS011;34485;51.536;3.816;2023-07-29T08:27:07;2.07;;;1.60;;
48685;SDS011;34485;51.536;3.816;2023-07-29T08:29:33;1.45;;;1.35;;
48685;SDS011;34485;51.536;3.816;2023-07-29T08:31:58;1.57;;;1.47;;
48685;SDS011;34485;51.536;3.816;2023-07-29T08:34:24;3.35;;;2.13;;
48685;SDS011;34485;51.536;3.816;2023-07-29T08:36:50;1.57;;;1.47;;
48685;SDS011;34485;51.536;3.816;2023-07-29T08:39:15;1.80;;;1.70;;
48685;SDS011;34485;51.536;3.816;2023-07-29T08:41:44;2.28;;;1.48;;
48685;SDS011;34485;51.536;3.816;2023-07-29T08:44:29;4.57;;;1.70;;
48685;SDS011;34485;51.536;3.816;2023-07-29T08:46:59;2.00;;;1.70;;
48685;SDS011;34485;51.536;3.816;2023-07-29T08:49:26;1.90;;;1.80;;
48685;SDS011;34485;51.536;3.816;2023-07-29T08:51:52;2.33;;;1.90;;
48685;SDS011;34485;51.536;3.816;2023-07-29T08:54:19;2.35;;;1.80;;
48685;SDS011;34485;51.536;3.816;2023-07-29T08:56:45;1.80;;;1.70;;
48685;SDS011;34485;51.536;3.816;2023-07-29T08:59:11;2.47;;;1.90;;
48685;SDS011;34485;51.536;3.816;2023-07-29T09:01:38;3.78;;;2.00;;
48685;SDS011;34485;51.536;3.816;2023-07-29T09:04:04;2.03;;;1.93;;
48685;SDS011;34485;51.536;3.816;2023-07-29T09:06:30;1.80;;;1.70;;
48685;SDS011;34485;51.536;3.816;2023-07-29T09:08:56;2.35;;;1.85;;
48685;SDS011;34485;51.536;3.816;2023-07-29T09:11:23;2.83;;;2.22;;
48685;SDS011;34485;51.536;3.816;2023-07-29T09:13:49;2.22;;;2.10;;
48685;SDS011;34485;51.536;3.816;2023-07-29T09:16:15;2.20;;;1.90;;
48685;SDS011;34485;51.536;3.816;2023-07-29T09:18:41;2.00;;;1.88;;
48685;SDS011;34485;51.536;3.816;2023-07-29T09:21:06;4.87;;;2.10;;
48685;SDS011;34485;51.536;3.816;2023-07-29T09:23:40;7.43;;;2.47;;
48685;SDS011;34485;51.536;3.816;2023-07-29T09:26:09;4.43;;;2.45;;
48685;SDS011;34485;51.536;3.816;2023-07-29T09:28:36;2.93;;;2.63;;
48685;SDS011;34485;51.536;3.816;2023-07-29T09:31:03;2.85;;;2.33;;
48685;SDS011;34485;51.536;3.816;2023-07-29T09:33:29;4.03;;;2.70;;
48685;SDS011;34485;51.536;3.816;2023-07-29T09:35:59;4.95;;;2.95;;
48685;SDS011;34485;51.536;3.816;2023-07-29T09:38:28;6.40;;;2.67;;
48685;SDS011;34485;51.536;3.816;2023-07-29T09:40:56;5.28;;;2.95;;
48685;SDS011;34485;51.536;3.816;2023-07-29T09:43:40;8.13;;;3.00;;
48685;SDS011;34485;51.536;3.816;2023-07-29T09:46:06;6.57;;;3.03;;
48685;SDS011;34485;51.536;3.816;2023-07-29T09:48:42;4.80;;;3.23;;
48685;SDS011;34485;51.536;3.816;2023-07-29T09:51:11;4.28;;;2.92;;
48685;SDS011;34485;51.536;3.816;2023-07-29T09:53:42;11.43;;;3.75;;
48685;SDS011;34485;51.536;3.816;2023-07-29T09:56:08;6.55;;;3.10;;
48685;SDS011;34485;51.536;3.816;2023-07-29T09:58:34;3.85;;;3.28;;
48685;SDS011;34485;51.536;3.816;2023-07-29T10:01:02;3.93;;;2.63;;
48685;SDS011;34485;51.536;3.816;2023-07-29T10:03:29;4.95;;;2.92;;
48685;SDS011;34485;51.536;3.816;2023-07-29T10:05:56;3.75;;;3.42;;
48685;SDS011;34485;51.536;3.816;2023-07-29T10:08:31;4.20;;;2.97;;
48685;SDS011;34485;51.536;3.816;2023-07-29T10:11:00;5.88;;;3.25;;
48685;SDS011;34485;51.536;3.816;2023-07-29T10:13:27;4.17;;;3.57;;
48685;SDS011;34485;51.536;3.816;2023-07-29T10:15:55;5.30;;;3.85;;
48685;SDS011;34485;51.536;3.816;2023-07-29T10:18:22;6.90;;;5.35;;
48685;SDS011;34485;51.536;3.816;2023-07-29T10:20:51;6.88;;;3.53;;
48685;SDS011;34485;51.536;3.816;2023-07-29T10:23:19;5.20;;;3.58;;
48685;SDS011;34485;51.536;3.816;2023-07-29T10:25:49;3.10;;;2.10;;
48685;SDS011;34485;51.536;3.816;2023-07-29T10:28:19;3.38;;;1.80;;
48685;SDS011;34485;51.536;3.816;2023-07-29T10:30:48;2.17;;;2.08;;
48685;SDS011;34485;51.536;3.816;2023-07-29T10:33:15;5.70;;;2.30;;
48685;SDS011;34485;51.536;3.816;2023-07-29T10:35:41;2.40;;;2.20;;
48685;SDS011;34485;51.536;3.816;2023-07-29T10:38:07;5.50;;;2.63;;
48685;SDS011;34485;51.536;3.816;2023-07-29T10:43:32;10.95;;;3.03;;
48685;SDS011;34485;51.536;3.816;2023-07-29T10:46:14;3.05;;;2.47;;
48685;SDS011;34485;51.536;3.816;2023-07-29T10:48:43;3.80;;;2.67;;
48685;SDS011;34485;51.536;3.816;2023-07-29T10:51:22;3.93;;;2.40;;
48685;SDS011;34485;51.536;3.816;2023-07-29T10:53:55;5.07;;;2.65;;
48685;SDS011;34485;51.536;3.816;2023-07-29T10:56:29;2.95;;;2.75;;
48685;SDS011;34485;51.536;3.816;2023-07-29T10:59:53;5.60;;;2.70;;
48685;SDS011;34485;51.536;3.816;2023-07-29T11:01:53;3.70;;;2.58;;
48685;SDS011;34485;51.536;3.816;2023-07-29T11:04:21;3.40;;;3.10;;
48685;SDS011;34485;51.536;3.816;2023-07-29T11:10:15;4.15;;;2.90;;
48685;SDS011;34485;51.536;3.816;2023-07-29T11:12:42;4.22;;;2.55;;
48685;SDS011;34485;51.536;3.816;2023-07-29T11:20:21;3.00;;;2.78;;
48685;SDS011;34485;51.536;3.816;2023-07-29T11:22:50;2.80;;;2.28;;
48685;SDS011;34485;51.536;3.816;2023-07-29T11:25:16;3.50;;;2.40;;
48685;SDS011;34485;51.536;3.816;2023-07-29T11:27:43;4.38;;;2.42;;
48685;SDS011;34485;51.536;3.816;2023-07-29T11:30:10;3.17;;;2.57;;
48685;SDS011;34485;51.536;3.816;2023-07-29T11:32:37;2.63;;;2.30;;
48685;SDS011;34485;51.536;3.816;2023-07-29T11:35:14;2.67;;;2.13;;
48685;SDS011;34485;51.536;3.816;2023-07-29T11:37:43;3.15;;;2.10;;
48685;SDS011;34485;51.536;3.816;2023-07-29T11:40:18;3.55;;;2.20;;
48685;SDS011;34485;51.536;3.816;2023-07-29T11:42:45;2.27;;;2.10;;
48685;SDS011;34485;51.536;3.816;2023-07-29T11:45:13;2.33;;;2.13;;
48685;SDS011;34485;51.536;3.816;2023-07-29T11:47:39;1.95;;;1.70;;
48685;SDS011;34485;51.536;3.816;2023-07-29T11:50:06;1.85;;;1.73;;
48685;SDS011;34485;51.536;3.816;2023-07-29T11:52:34;3.28;;;1.85;;
48685;SDS011;34485;51.536;3.816;2023-07-29T11:55:04;2.13;;;2.03;;
48685;SDS011;34485;51.536;3.816;2023-07-29T11:57:31;5.85;;;2.22;;
48685;SDS011;34485;51.536;3.816;2023-07-29T11:59:59;2.40;;;1.95;;
48685;SDS011;34485;51.536;3.816;2023-07-29T12:02:28;3.88;;;1.80;;
48685;SDS011;34485;51.536;3.816;2023-07-29T12:04:54;2.03;;;1.92;;
48685;SDS011;34485;51.536;3.816;2023-07-29T12:07:22;2.17;;;1.97;;
48685;SDS011;34485;51.536;3.816;2023-07-29T12:09:48;2.58;;;1.80;;
48685;SDS011;34485;51.536;3.816;2023-07-29T12:12:15;2.95;;;1.88;;
48685;SDS011;34485;51.536;3.816;2023-07-29T12:14:43;1.90;;;1.80;;
48685;SDS011;34485;51.536;3.816;2023-07-29T12:17:11;3.10;;;1.67;;
48685;SDS011;34485;51.536;3.816;2023-07-29T12:19:37;2.67;;;2.10;;
48685;SDS011;34485;51.536;3.816;2023-07-29T12:22:04;3.30;;;2.20;;
48685;SDS011;34485;51.536;3.816;2023-07-29T12:24:31;2.88;;;2.15;;
48685;SDS011;34485;51.536;3.816;2023-07-29T12:26:58;2.90;;;2.17;;
48685;SDS011;34485;51.536;3.816;2023-07-29T12:29:24;2.38;;;2.17;;
48685;SDS011;34485;51.536;3.816;2023-07-29T12:31:56;2.90;;;2.60;;
48685;SDS011;34485;51.536;3.816;2023-07-29T12:34:27;4.13;;;2.63;;
48685;SDS011;34485;51.536;3.816;2023-07-29T12:36:53;5.90;;;3.05;;
48685;SDS011;34485;51.536;3.816;2023-07-29T12:39:27;2.60;;;2.40;;
48685;SDS011;34485;51.536;3.816;2023-07-29T12:41:55;4.03;;;3.00;;
48685;SDS011;34485;51.536;3.816;2023-07-29T12:44:22;5.93;;;3.00;;
48685;SDS011;34485;51.536;3.816;2023-07-29T12:46:49;5.18;;;3.08;;
48685;SDS011;34485;51.536;3.816;2023-07-29T12:49:16;3.28;;;2.80;;
48685;SDS011;34485;51.536;3.816;2023-07-29T12:51:42;4.10;;;2.60;;
48685;SDS011;34485;51.536;3.816;2023-07-29T12:54:08;3.45;;;2.50;;
48685;SDS011;34485;51.536;3.816;2023-07-29T12:56:33;4.73;;;2.30;;
48685;SDS011;34485;51.536;3.816;2023-07-29T12:58:59;3.70;;;2.33;;
48685;SDS011;34485;51.536;3.816;2023-07-29T13:01:26;4.65;;;2.65;;
48685;SDS011;34485;51.536;3.816;2023-07-29T13:03:52;5.27;;;2.40;;
48685;SDS011;34485;51.536;3.816;2023-07-29T13:06:18;1.88;;;1.77;;
48685;SDS011;34485;51.536;3.816;2023-07-29T13:08:44;2.43;;;2.20;;
48685;SDS011;34485;51.536;3.816;2023-07-29T13:11:10;4.00;;;2.30;;
48685;SDS011;34485;51.536;3.816;2023-07-29T13:13:36;1.92;;;1.75;;
48685;SDS011;34485;51.536;3.816;2023-07-29T13:16:01;5.10;;;2.40;;
48685;SDS011;34485;51.536;3.816;2023-07-29T13:18:27;3.67;;;2.15;;
48685;SDS011;34485;51.536;3.816;2023-07-29T13:20:53;2.45;;;2.13;;
48685;SDS011;34485;51.536;3.816;2023-07-29T13:23:19;3.55;;;2.67;;
48685;SDS011;34485;51.536;3.816;2023-07-29T13:25:45;3.00;;;2.30;;
48685;SDS011;34485;51.536;3.816;2023-07-29T13:28:11;4.40;;;2.50;;
48685;SDS011;34485;51.536;3.816;2023-07-29T13:30:40;5.22;;;2.40;;
48685;SDS011;34485;51.536;3.816;2023-07-29T13:33:08;2.10;;;1.87;;
48685;SDS011;34485;51.536;3.816;2023-07-29T13:35:34;2.95;;;1.83;;
48685;SDS011;34485;51.536;3.816;2023-07-29T13:38:00;4.07;;;1.97;;
48685;SDS011;34485;51.536;3.816;2023-07-29T13:40:26;2.72;;;2.10;;
48685;SDS011;34485;51.536;3.816;2023-07-29T13:42:51;4.95;;;1.98;;
48685;SDS011;34485;51.536;3.816;2023-07-29T13:45:17;5.70;;;2.00;;
48685;SDS011;34485;51.536;3.816;2023-07-29T13:47:43;4.53;;;2.30;;
48685;SDS011;34485;51.536;3.816;2023-07-29T13:50:09;3.37;;;2.50;;
48685;SDS011;34485;51.536;3.816;2023-07-29T13:52:35;7.20;;;2.28;;
48685;SDS011;34485;51.536;3.816;2023-07-29T13:55:02;3.75;;;1.90;;
48685;SDS011;34485;51.536;3.816;2023-07-29T13:57:28;6.07;;;2.00;;
48685;SDS011;34485;51.536;3.816;2023-07-29T13:59:54;3.30;;;1.90;;
48685;SDS011;34485;51.536;3.816;2023-07-29T14:02:20;2.75;;;2.03;;
48685;SDS011;34485;51.536;3.816;2023-07-29T14:04:45;3.33;;;2.23;;
48685;SDS011;34485;51.536;3.816;2023-07-29T14:07:11;2.70;;;2.50;;
48685;SDS011;34485;51.536;3.816;2023-07-29T14:09:36;2.77;;;1.90;;
48685;SDS011;34485;51.536;3.816;2023-07-29T14:12:03;3.63;;;1.90;;
48685;SDS011;34485;51.536;3.816;2023-07-29T14:14:29;4.30;;;1.77;;
48685;SDS011;34485;51.536;3.816;2023-07-29T14:16:55;2.73;;;1.60;;
48685;SDS011;34485;51.536;3.816;2023-07-29T14:19:21;2.22;;;1.55;;
48685;SDS011;34485;51.536;3.816;2023-07-29T14:21:46;4.13;;;1.70;;
48685;SDS011;34485;51.536;3.816;2023-07-29T14:24:12;1.92;;;1.50;;
48685;SDS011;34485;51.536;3.816;2023-07-29T14:26:38;3.23;;;1.53;;
48685;SDS011;34485;51.536;3.816;2023-07-29T14:29:04;2.17;;;1.90;;
48685;SDS011;34485;51.536;3.816;2023-07-29T14:31:29;1.53;;;1.33;;
48685;SDS011;34485;51.536;3.816;2023-07-29T14:33:55;6.37;;;1.80;;
48685;SDS011;34485;51.536;3.816;2023-07-29T14:36:20;3.42;;;1.90;;
48685;SDS011;34485;51.536;3.816;2023-07-29T14:38:46;5.07;;;1.80;;
48685;SDS011;34485;51.536;3.816;2023-07-29T14:41:12;3.20;;;1.52;;
48685;SDS011;34485;51.536;3.816;2023-07-29T14:43:38;2.23;;;1.90;;
48685;SDS011;34485;51.536;3.816;2023-07-29T14:46:03;2.65;;;1.90;;
48685;SDS011;34485;51.536;3.816;2023-07-29T14:48:30;1.75;;;1.65;;
48685;SDS011;34485;51.536;3.816;2023-07-29T14:50:55;3.20;;;1.80;;
48685;SDS011;34485;51.536;3.816;2023-07-29T14:53:21;3.37;;;1.70;;
48685;SDS011;34485;51.536;3.816;2023-07-29T14:55:46;2.97;;;1.70;;
48685;SDS011;34485;51.536;3.816;2023-07-29T14:58:12;4.43;;;1.50;;
48685;SDS011;34485;51.536;3.816;2023-07-29T15:00:38;4.80;;;1.90;;
48685;SDS011;34485;51.536;3.816;2023-07-29T15:03:03;3.28;;;1.70;;